Flight Track Log - Related Links

Times and Time Zones

All times are in EST time to prevent confusion due to time zone crossing. See the FSR411 flight status page for this flight to view local times or setup timezone preferences in your user account.

Time Position Orientation Groundspeed Altitude Reporting Facility
EST Latitude Longitude Course Direction KTS MPH feet Rate Location/Type
Tue 06:06:28 PM 42.3478 -82.9353 138° Southeast 246 283 4,200  Level Cleveland Center
Tue 06:07:21 PM 42.3022 -82.9108 158° South 247 284 5,000 1,309 Climbing Cleveland Center
Tue 06:07:23 PM 42.2892 -82.9078 170° South 264 304 5,400 3,387 Climbing Cleveland Center
Tue 06:08:23 PM 42.2264 -82.8919 169° South 270 311 8,500 3,541 Climbing Cleveland Center
Tue 06:09:25 PM 42.1261 -82.8650 169° South 303 349 12,600 3,242 Climbing Cleveland Center
Tue 06:10:27 PM 42.0506 -82.9397 216° Southwest 368 423 15,200 3,435 Climbing Cleveland Center
Tue 06:11:29 PM 42.0086 -83.0722 247° West 373 429 19,700 3,290 Climbing Cleveland Center
Tue 06:12:31 PM 41.9442 -83.1925 234° Southwest 404 465 22,000 2,032 Climbing Cleveland Center
Tue 06:13:33 PM 41.8556 -83.2928 220° Southwest 416 479 23,900 2,274 Climbing Cleveland Center
Tue 06:14:35 PM 41.7975 -83.4256 240° Southwest 417 480 26,700 1,984 Climbing Cleveland Center
Tue 06:15:37 PM 41.7361 -83.5603 239° Southwest 421 484 28,000 629 Climbing Cleveland Center
Tue 06:16:39 PM 41.6625 -83.7233 239° Southwest 426 490 28,000  Level Cleveland Center
Tue 06:17:41 PM 41.6011 -83.8578 239° Southwest 423 487 28,000  Level Cleveland Center
Tue 06:18:43 PM 41.5389 -83.9933 239° Southwest 426 490 28,000  Level Cleveland Center
Tue 06:19:46 PM 41.4761 -84.1303 239° Southwest 431 496 28,000  Level Cleveland Center
Tue 06:20:36 PM 41.4197 -84.2500 238° Southwest 428 493 28,000  Level Chicago Center
Tue 06:21:38 PM 41.3589 -84.3836 239° Southwest 423 487 28,000  Level Chicago Center
Tue 06:22:40 PM 41.2961 -84.5161 238° Southwest 423 487 28,000  Level Chicago Center
Tue 06:23:42 PM 41.2342 -84.6494 238° Southwest 423 487 28,000  Level Chicago Center
Tue 06:24:44 PM 41.1717 -84.7806 238° Southwest 420 483 28,000  Level Chicago Center
Tue 06:25:46 PM 41.0978 -84.9381 238° Southwest 419 482 28,000  Level Chicago Center
Tue 06:26:49 PM 41.0342 -85.0714 238° Southwest 423 487 28,000  Level Chicago Center
Tue 06:27:51 PM 40.9714 -85.2075 239° Southwest 428 493 28,000  Level Chicago Center
Tue 06:28:53 PM 40.9319 -85.3522 250° West 421 484 28,000  Level Chicago Center
Tue 06:29:55 PM 40.8900 -85.4944 249° West 414 476 28,000  Level Chicago Center
Tue 06:30:57 PM 40.8497 -85.6350 249° West 411 473 28,000  Level Chicago Center
Tue 06:31:59 PM 40.8081 -85.7761 249° West 410 472 28,000  Level Chicago Center
Tue 06:33:01 PM 40.7589 -85.9439 249° West 409 471 28,000  Level Chicago Center
Tue 06:34:03 PM 40.7169 -86.0844 249° West 412 474 28,000  Level Chicago Center
Tue 06:35:05 PM 40.6736 -86.2303 249° West 416 479 28,000  Level Chicago Center
Tue 06:36:07 PM 40.6319 -86.3708 249° West 416 479 28,000  Level Chicago Center
Tue 06:37:09 PM 40.5900 -86.5086 248° West 411 473 28,000 -387 Level Chicago Center
Tue 06:38:11 PM 40.5492 -86.6458 249° West 408 470 27,200 -1,645 Descending Chicago Center
Tue 06:39:13 PM 40.5000 -86.8072 248° West 402 463 24,600 -2,419 Descending Chicago Center
Tue 06:40:15 PM 40.4597 -86.9397 248° West 395 455 22,200 -2,323 Descending Chicago Center
Tue 06:41:17 PM 40.4211 -87.0658 248° West 382 440 19,800 -2,032 Descending Chicago Center
Tue 06:42:19 PM 40.3822 -87.1908 248° West 375 432 18,000 -2,032 Descending Chicago Center
Tue 06:43:21 PM 40.3453 -87.3119 248° West 366 421 15,600 -2,496 Descending Chicago Center
Tue 06:44:24 PM 40.3000 -87.4553 248° West 359 413 12,800 -2,304 Descending Chicago Center
Tue 06:45:26 PM 40.2667 -87.5639 248° West 328 377 10,800 -1,645 Descending Chicago Center
Tue 06:46:28 PM 40.2383 -87.6542 248° West 284 327 9,400 -1,452 Descending Chicago Center
Tue 06:47:30 PM 40.2097 -87.7447 248° West 273 314 7,800 -1,452 Descending Chicago Center
Tue 06:48:32 PM 40.1831 -87.8297 248° West 267 307 6,400 -1,355 Descending Chicago Center
Tue 06:49:34 PM 40.1533 -87.9200 247° West 263 303 5,000 -1,452 Descending Chicago Center
Tue 06:50:36 PM 40.1250 -87.9997 245° Southwest 254 292 3,400 -1,548 Descending Chicago Center
Tue 06:52:00 PM 40.0604 -88.1688 246° West  Level FlightAware Approximate
Tue 06:59:00 PM 40.0333 -88.2667 252° West  Level FlightAware Approximate
Tue 07:00:00 PM 40.0388 -88.2778 252° West  Level Estimated
Tue 07:01:00 PM 40.0388 -88.2778 252° West  Level Estimated
Tue 07:02:00 PM 40.0388 -88.2778 252° West  Level Estimated
Tue 07:03:00 PM 40.0388 -88.2778 252° West  Level Estimated

Login

Don't have an account? Register now (free) for customized features, flight alerts, and more!